createdAt,value
2023-03-20T00:03:41.939Z,5.66
2023-03-20T00:08:45.945Z,5.60
2023-03-20T00:13:47.643Z,5.55
2023-03-20T00:18:49.777Z,5.51
2023-03-20T00:23:51.293Z,5.44
2023-03-20T00:28:53.005Z,5.39
2023-03-20T00:33:57.508Z,5.34
2023-03-20T00:38:59.067Z,5.35
2023-03-20T00:44:05.238Z,5.39
2023-03-20T00:49:07.930Z,5.42
2023-03-20T00:54:14.304Z,5.43
2023-03-20T00:59:22.666Z,5.43
2023-03-20T01:04:24.522Z,5.44
2023-03-20T01:09:26.261Z,5.44
2023-03-20T01:14:27.816Z,5.41
2023-03-20T01:19:29.313Z,5.37
2023-03-20T01:24:30.945Z,5.32
2023-03-20T01:29:32.460Z,5.27
2023-03-20T01:34:33.975Z,5.22
2023-03-20T01:39:37.001Z,5.14
2023-03-20T01:44:38.830Z,5.04
2023-03-20T01:50:18.057Z,4.97
2023-03-20T01:55:21.129Z,4.95
2023-03-20T02:00:30.709Z,4.91
2023-03-20T02:05:33.247Z,4.89
2023-03-20T02:10:35.419Z,4.84
2023-03-20T02:15:55.819Z,4.80
2023-03-20T02:21:09.698Z,4.73
2023-03-20T02:26:22.661Z,4.64
2023-03-20T02:31:39.718Z,4.60
2023-03-20T02:37:18.772Z,4.59
2023-03-20T02:42:38.332Z,4.53
2023-03-20T02:47:48.864Z,4.49
2023-03-20T02:52:53.701Z,4.58
2023-03-20T02:57:58.641Z,4.78
2023-03-20T03:03:12.174Z,4.91
2023-03-20T03:08:19.442Z,4.97
2023-03-20T03:13:27.577Z,4.99
2023-03-20T03:18:30.502Z,5.01
2023-03-20T03:23:40.220Z,4.95
2023-03-20T03:28:47.544Z,4.87
2023-03-20T03:33:52.613Z,4.78
2023-03-20T03:38:59.971Z,4.68
2023-03-20T03:44:04.572Z,4.59
2023-03-20T03:49:08.714Z,4.54
2023-03-20T03:54:34.261Z,4.48
2023-03-20T03:59:40.017Z,4.50
2023-03-20T04:04:48.001Z,4.60
2023-03-20T04:09:49.552Z,4.70
2023-03-20T04:14:51.100Z,4.71
2023-03-20T04:19:52.601Z,4.66
2023-03-20T04:24:54.118Z,4.59
2023-03-20T04:29:56.632Z,4.57
2023-03-20T04:34:58.172Z,4.49
2023-03-20T04:39:59.686Z,4.44
2023-03-20T04:45:01.236Z,4.42
2023-03-20T04:50:03.222Z,4.40
2023-03-20T04:55:05.609Z,4.39
2023-03-20T05:00:07.985Z,4.41
2023-03-20T05:05:09.766Z,4.47
2023-03-20T05:10:11.797Z,4.49
2023-03-20T05:15:13.719Z,4.49
2023-03-20T05:20:16.006Z,4.56
2023-03-20T05:25:17.871Z,4.60
2023-03-20T05:30:26.242Z,4.74
2023-03-20T05:35:27.842Z,4.95
2023-03-20T05:40:29.313Z,5.13
2023-03-20T05:45:31.132Z,5.15
2023-03-20T05:50:32.625Z,5.20
2023-03-20T05:55:34.699Z,5.33
2023-03-20T06:00:36.492Z,5.45
2023-03-20T06:05:38.368Z,5.56
2023-03-20T06:10:40.078Z,5.67
2023-03-20T06:15:41.778Z,5.75
2023-03-20T06:20:43.380Z,5.87
2023-03-20T06:25:44.955Z,5.99
2023-03-20T06:30:46.532Z,6.09
2023-03-20T06:35:48.596Z,6.19
2023-03-20T06:40:50.537Z,6.29
2023-03-20T06:45:52.828Z,6.39
2023-03-20T06:50:55.963Z,6.46
2023-03-20T06:55:57.548Z,6.58
2023-03-20T07:00:59.080Z,6.73
2023-03-20T07:06:00.999Z,6.89
2023-03-20T07:11:06.558Z,7.09
2023-03-20T07:16:09.419Z,7.30
2023-03-20T07:21:17.285Z,7.52
2023-03-20T07:26:18.791Z,7.72
2023-03-20T07:31:23.211Z,7.91
2023-03-20T07:36:24.934Z,8.07
2023-03-20T07:41:26.432Z,8.22
2023-03-20T07:46:28.231Z,8.35
2023-03-20T07:51:29.858Z,8.49
2023-03-20T07:56:31.361Z,8.63
2023-03-20T08:01:33.342Z,8.77
2023-03-20T08:06:34.938Z,8.95
2023-03-20T08:11:38.002Z,9.18
2023-03-20T08:16:39.650Z,9.40
2023-03-20T08:21:41.529Z,9.57
2023-03-20T08:26:44.404Z,9.74
2023-03-20T08:31:46.979Z,9.93
2023-03-20T08:36:48.452Z,10.15
2023-03-20T08:41:50.010Z,10.37
2023-03-20T08:46:51.502Z,10.59
2023-03-20T08:51:53.009Z,10.83
2023-03-20T08:56:54.503Z,11.06
2023-03-20T09:01:56.523Z,11.26
2023-03-20T09:07:00.131Z,11.44
2023-03-20T09:12:01.752Z,11.63
2023-03-20T09:17:03.322Z,11.73
2023-03-20T09:22:05.144Z,11.85
2023-03-20T09:27:07.768Z,11.98
2023-03-20T09:32:14.602Z,12.09
2023-03-20T09:37:16.136Z,12.14
2023-03-20T09:42:36.264Z,12.19
2023-03-20T09:47:52.736Z,12.23
2023-03-20T09:53:17.276Z,12.33
2023-03-20T09:58:24.812Z,12.46
2023-03-20T10:03:45.787Z,12.60
2023-03-20T10:08:47.439Z,12.70
2023-03-20T10:14:23.042Z,12.81
2023-03-20T10:19:27.672Z,12.96
2023-03-20T10:24:33.938Z,13.13
2023-03-20T10:30:05.256Z,13.36
2023-03-20T10:35:30.269Z,13.60
2023-03-20T10:40:42.520Z,13.80
2023-03-20T10:45:52.700Z,13.93
2023-03-20T10:50:58.792Z,14.09
2023-03-20T10:56:11.942Z,14.25
2023-03-20T11:01:13.614Z,14.28
2023-03-20T11:06:20.605Z,14.33
2023-03-20T11:11:25.575Z,14.40
2023-03-20T11:16:37.111Z,14.40
2023-03-20T11:21:56.142Z,14.44
2023-03-20T11:27:06.708Z,14.51
2023-03-20T11:32:14.228Z,14.61
2023-03-20T11:37:29.011Z,14.74
2023-03-20T11:42:30.905Z,14.96
2023-03-20T11:47:35.649Z,15.12
2023-03-20T11:52:39.809Z,15.26
2023-03-20T11:57:42.785Z,15.38
2023-03-20T12:02:44.860Z,15.46
2023-03-20T12:07:50.713Z,15.42
2023-03-20T12:13:00.439Z,15.46
2023-03-20T12:18:08.857Z,15.52
2023-03-20T12:23:13.694Z,15.61
2023-03-20T12:28:42.897Z,15.62
2023-03-20T12:34:01.457Z,15.77
2023-03-20T12:39:07.087Z,15.65
2023-03-20T12:44:35.522Z,15.64
2023-03-20T12:49:46.478Z,15.56
2023-03-20T12:55:29.729Z,15.42
2023-03-20T13:00:42.629Z,15.53
2023-03-20T13:05:56.254Z,15.44
2023-03-20T13:11:07.038Z,15.28
2023-03-20T13:16:31.554Z,15.07
2023-03-20T13:22:06.634Z,14.90
2023-03-20T13:27:14.452Z,14.75
2023-03-20T13:32:30.798Z,14.49
2023-03-20T13:37:40.846Z,14.27
2023-03-20T13:43:25.534Z,14.17
2023-03-20T13:48:37.732Z,14.10
2023-03-20T13:53:45.890Z,14.00
2023-03-20T13:59:05.406Z,14.03
2023-03-20T14:04:14.266Z,14.02
2023-03-20T14:09:30.701Z,13.98
2023-03-20T14:14:52.394Z,13.90
2023-03-20T14:19:55.920Z,13.88
2023-03-20T14:25:04.756Z,13.85
2023-03-20T14:30:38.695Z,13.87
2023-03-20T14:35:46.489Z,13.81
2023-03-20T14:40:57.118Z,13.78
2023-03-20T14:46:21.188Z,13.85
2023-03-20T14:51:44.154Z,13.91
2023-03-20T14:56:45.689Z,13.92
2023-03-20T15:01:53.314Z,13.90
2023-03-20T15:07:02.175Z,13.76
2023-03-20T15:12:04.607Z,13.62
2023-03-20T15:17:07.373Z,13.55
2023-03-20T15:22:17.332Z,13.51
2023-03-20T15:27:19.281Z,13.52
2023-03-20T15:32:21.731Z,13.52
2023-03-20T15:37:25.561Z,13.45
2023-03-20T15:42:27.670Z,13.36
2023-03-20T15:47:30.411Z,13.26
2023-03-20T15:52:53.082Z,13.15
2023-03-20T15:58:00.897Z,13.06
2023-03-20T16:03:06.637Z,12.95
2023-03-20T16:08:32.978Z,12.86
2023-03-20T16:13:41.542Z,12.76
2023-03-20T16:18:46.480Z,12.65
2023-03-20T16:23:52.665Z,12.58
2023-03-20T16:28:58.701Z,12.51
2023-03-20T16:34:06.567Z,12.40
2023-03-20T16:39:15.995Z,12.32
2023-03-20T16:44:20.845Z,12.21
2023-03-20T16:49:37.211Z,12.09
2023-03-20T16:54:39.288Z,11.98
2023-03-20T16:59:41.334Z,11.87
2023-03-20T17:04:43.268Z,11.79
2023-03-20T17:09:57.475Z,11.73
2023-03-20T17:14:59.047Z,11.67
2023-03-20T17:20:00.952Z,11.65
2023-03-20T17:25:02.434Z,11.67
2023-03-20T17:30:06.278Z,11.66
2023-03-20T17:35:08.590Z,11.61
2023-03-20T17:40:36.745Z,11.50
2023-03-20T17:45:38.894Z,11.36
2023-03-20T17:50:40.485Z,11.25
2023-03-20T17:55:42.566Z,11.16
2023-03-20T18:00:45.384Z,11.16
2023-03-20T18:05:50.155Z,11.18
2023-03-20T18:10:53.507Z,11.12
2023-03-20T18:15:57.014Z,10.99
2023-03-20T18:20:59.471Z,10.79
2023-03-20T18:26:01.146Z,10.61
2023-03-20T18:31:02.671Z,10.43
2023-03-20T18:36:04.943Z,10.28
2023-03-20T18:41:07.445Z,10.24
2023-03-20T18:46:23.334Z,10.24
2023-03-20T18:51:25.374Z,10.12
2023-03-20T18:56:28.477Z,10.01
2023-03-20T19:01:30.029Z,9.92
2023-03-20T19:06:32.395Z,9.89
2023-03-20T19:11:34.111Z,9.90
2023-03-20T19:16:37.865Z,9.94
2023-03-20T19:21:39.558Z,9.96
2023-03-20T19:26:42.209Z,9.96
2023-03-20T19:31:44.141Z,9.99
2023-03-20T19:36:48.969Z,10.05
2023-03-20T19:41:51.792Z,10.04
2023-03-20T19:46:53.398Z,9.95
2023-03-20T19:51:55.071Z,9.86
2023-03-20T19:56:56.601Z,9.83
2023-03-20T20:01:58.940Z,9.84
2023-03-20T20:07:36.284Z,9.81
2023-03-20T20:12:22.401Z,9.73
2023-03-20T20:17:24.387Z,9.65
2023-03-20T20:22:27.293Z,9.60
2023-03-20T20:27:29.669Z,9.60
2023-03-20T20:32:31.516Z,9.56
2023-03-20T20:38:25.195Z,9.50
2023-03-20T20:43:01.905Z,9.41
2023-03-20T20:48:06.460Z,9.44
2023-03-20T20:53:08.390Z,9.56
2023-03-20T20:58:11.342Z,9.63
2023-03-20T21:03:12.904Z,9.68
2023-03-20T21:08:15.228Z,9.68
2023-03-20T21:13:16.781Z,9.75
2023-03-20T21:18:18.294Z,9.84
2023-03-20T21:23:19.817Z,9.86
2023-03-20T21:28:21.341Z,9.82
2023-03-20T21:33:23.929Z,9.74
2023-03-20T21:43:47.753Z,9.70
2023-03-20T21:49:41.179Z,9.77
2023-03-20T22:00:14.193Z,9.79
2023-03-20T22:16:17.136Z,9.74
2023-03-20T22:42:55.810Z,9.57
2023-03-20T22:47:54.196Z,9.45
2023-03-20T22:52:56.256Z,9.41
2023-03-20T22:58:06.813Z,9.41
2023-03-20T23:03:19.984Z,9.38
2023-03-20T23:08:28.122Z,9.32
2023-03-20T23:13:29.742Z,9.23
2023-03-20T23:18:31.489Z,9.24
2023-03-20T23:23:33.167Z,9.31
2023-03-20T23:28:36.717Z,9.27
2023-03-20T23:33:39.284Z,9.12
2023-03-20T23:38:41.426Z,9.02
2023-03-20T23:43:42.948Z,9.07
2023-03-20T23:48:44.453Z,9.07
2023-03-20T23:53:46.053Z,9.02
2023-03-20T23:58:58.283Z,8.92
